sensor_id;sensor_type;location;lat;lon;timestamp;pressure;altitude;pressure_sealevel;temperature;humidity
55486;BME280;49383;-25.924;28.194;2023-04-29T00:00:59;85456.21;;;24.98;31.03
55486;BME280;49383;-25.924;28.194;2023-04-29T00:03:24;85458.40;;;24.98;31.04
55486;BME280;49383;-25.924;28.194;2023-04-29T00:05:49;85457.09;;;25.23;31.02
55486;BME280;49383;-25.924;28.194;2023-04-29T00:08:14;85453.39;;;25.22;31.06
55486;BME280;49383;-25.924;28.194;2023-04-29T00:10:40;85453.71;;;24.96;31.07
55486;BME280;49383;-25.924;28.194;2023-04-29T00:13:04;85451.52;;;24.95;31.05
55486;BME280;49383;-25.924;28.194;2023-04-29T00:15:30;85446.90;;;25.21;31.04
55486;BME280;49383;-25.924;28.194;2023-04-29T00:17:55;85443.32;;;24.94;31.08
55486;BME280;49383;-25.924;28.194;2023-04-29T00:20:21;85439.15;;;25.20;31.07
55486;BME280;49383;-25.924;28.194;2023-04-29T00:22:46;85433.67;;;25.19;31.03
55486;BME280;49383;-25.924;28.194;2023-04-29T00:25:10;85435.35;;;24.92;31.10
55486;BME280;49383;-25.924;28.194;2023-04-29T00:27:36;85434.66;;;24.91;31.09
55486;BME280;49383;-25.924;28.194;2023-04-29T00:30:02;85435.86;;;24.91;31.08
55486;BME280;49383;-25.924;28.194;2023-04-29T00:32:26;85438.49;;;24.90;31.09
55486;BME280;49383;-25.924;28.194;2023-04-29T00:34:52;85441.78;;;24.90;31.11
55486;BME280;49383;-25.924;28.194;2023-04-29T00:37:17;85444.46;;;24.91;31.11
55486;BME280;49383;-25.924;28.194;2023-04-29T00:39:42;85445.36;;;24.90;31.10
55486;BME280;49383;-25.924;28.194;2023-04-29T00:42:08;85446.96;;;24.89;31.11
55486;BME280;49383;-25.924;28.194;2023-04-29T00:44:32;85441.87;;;24.88;31.12
55486;BME280;49383;-25.924;28.194;2023-04-29T00:46:58;85442.09;;;24.88;31.11
55486;BME280;49383;-25.924;28.194;2023-04-29T00:49:24;85440.04;;;24.87;31.11
55486;BME280;49383;-25.924;28.194;2023-04-29T00:51:49;85441.37;;;25.13;31.11
55486;BME280;49383;-25.924;28.194;2023-04-29T00:54:15;85442.41;;;25.12;31.12
55486;BME280;49383;-25.924;28.194;2023-04-29T00:56:40;85438.39;;;24.86;31.13
55486;BME280;49383;-25.924;28.194;2023-04-29T00:59:05;85437.32;;;24.85;31.15
55486;BME280;49383;-25.924;28.194;2023-04-29T01:01:30;85439.35;;;24.85;31.13
55486;BME280;49383;-25.924;28.194;2023-04-29T01:03:56;85440.47;;;25.12;31.18
55486;BME280;49383;-25.924;28.194;2023-04-29T01:06:28;85442.92;;;24.85;31.16
55486;BME280;49383;-25.924;28.194;2023-04-29T01:08:55;85440.47;;;25.11;31.12
55486;BME280;49383;-25.924;28.194;2023-04-29T01:11:12;85439.01;;;25.12;31.13
55486;BME280;49383;-25.924;28.194;2023-04-29T01:13:44;85438.79;;;25.17;31.07
55486;BME280;49383;-25.924;28.194;2023-04-29T01:16:07;85432.91;;;24.92;31.05
55486;BME280;49383;-25.924;28.194;2023-04-29T01:18:32;85430.45;;;24.87;31.10
55486;BME280;49383;-25.924;28.194;2023-04-29T01:20:54;85433.07;;;24.84;31.14
55486;BME280;49383;-25.924;28.194;2023-04-29T01:23:19;85431.25;;;24.82;31.15
55486;BME280;49383;-25.924;28.194;2023-04-29T01:25:44;85430.83;;;25.07;31.16
55486;BME280;49383;-25.924;28.194;2023-04-29T01:28:18;85432.00;;;24.80;31.16
55486;BME280;49383;-25.924;28.194;2023-04-29T01:30:41;85428.91;;;25.09;31.12
55486;BME280;49383;-25.924;28.194;2023-04-29T01:33:05;85424.29;;;25.08;31.14
55486;BME280;49383;-25.924;28.194;2023-04-29T01:35:43;85420.30;;;24.80;31.14
55486;BME280;49383;-25.924;28.194;2023-04-29T01:37:56;85420.85;;;25.06;31.15
55486;BME280;49383;-25.924;28.194;2023-04-29T01:40:21;85421.28;;;24.79;31.16
55486;BME280;49383;-25.924;28.194;2023-04-29T01:42:46;85419.66;;;25.05;31.18
55486;BME280;49383;-25.924;28.194;2023-04-29T01:45:09;85418.51;;;24.77;31.22
55486;BME280;49383;-25.924;28.194;2023-04-29T01:47:32;85416.44;;;25.03;31.20
55486;BME280;49383;-25.924;28.194;2023-04-29T01:49:57;85420.13;;;24.76;31.21
55486;BME280;49383;-25.924;28.194;2023-04-29T01:52:22;85423.08;;;25.01;31.19
55486;BME280;49383;-25.924;28.194;2023-04-29T01:54:47;85422.28;;;25.00;31.23
55486;BME280;49383;-25.924;28.194;2023-04-29T01:57:13;85418.76;;;24.51;31.25
55486;BME280;49383;-25.924;28.194;2023-04-29T01:59:38;85417.45;;;24.73;31.25
55486;BME280;49383;-25.924;28.194;2023-04-29T02:02:04;85421.28;;;24.72;31.24
55486;BME280;49383;-25.924;28.194;2023-04-29T02:04:29;85422.78;;;24.99;31.27
55486;BME280;49383;-25.924;28.194;2023-04-29T02:06:54;85425.08;;;24.49;31.27
55486;BME280;49383;-25.924;28.194;2023-04-29T02:09:19;85426.42;;;24.98;31.26
55486;BME280;49383;-25.924;28.194;2023-04-29T02:11:45;85429.36;;;24.97;31.27
55486;BME280;49383;-25.924;28.194;2023-04-29T02:14:11;85431.01;;;24.69;31.27
55486;BME280;49383;-25.924;28.194;2023-04-29T02:16:36;85432.05;;;24.46;31.27
55486;BME280;49383;-25.924;28.194;2023-04-29T02:19:01;85432.45;;;24.68;31.30
55486;BME280;49383;-25.924;28.194;2023-04-29T02:21:27;85435.54;;;24.94;31.32
55486;BME280;49383;-25.924;28.194;2023-04-29T02:23:53;85432.98;;;24.94;31.27
55486;BME280;49383;-25.924;28.194;2023-04-29T02:26:17;85432.44;;;24.94;31.32
55486;BME280;49383;-25.924;28.194;2023-04-29T02:28:43;85432.03;;;24.94;31.30
55486;BME280;49383;-25.924;28.194;2023-04-29T02:31:09;85429.17;;;24.66;31.30
55486;BME280;49383;-25.924;28.194;2023-04-29T02:33:34;85431.12;;;24.92;31.33
55486;BME280;49383;-25.924;28.194;2023-04-29T02:35:59;85433.46;;;24.91;31.32
55486;BME280;49383;-25.924;28.194;2023-04-29T02:38:27;85437.67;;;24.64;31.33
55486;BME280;49383;-25.924;28.194;2023-04-29T02:40:50;85445.90;;;24.63;31.35
55486;BME280;49383;-25.924;28.194;2023-04-29T02:43:15;85453.70;;;24.63;31.33
55486;BME280;49383;-25.924;28.194;2023-04-29T02:45:40;85454.43;;;24.62;31.35
55486;BME280;49383;-25.924;28.194;2023-04-29T02:48:06;85454.95;;;24.61;31.34
55486;BME280;49383;-25.924;28.194;2023-04-29T02:50:32;85454.55;;;24.61;31.35
55486;BME280;49383;-25.924;28.194;2023-04-29T02:52:57;85456.79;;;24.89;31.35
55486;BME280;49383;-25.924;28.194;2023-04-29T02:55:23;85462.20;;;24.62;31.35
55486;BME280;49383;-25.924;28.194;2023-04-29T02:57:48;85470.54;;;24.60;31.35
55486;BME280;49383;-25.924;28.194;2023-04-29T03:00:13;85472.84;;;24.86;31.37
55486;BME280;49383;-25.924;28.194;2023-04-29T03:02:39;85474.65;;;24.85;31.40
55486;BME280;49383;-25.924;28.194;2023-04-29T03:05:05;85476.97;;;24.58;31.41
55486;BME280;49383;-25.924;28.194;2023-04-29T03:07:30;85476.70;;;24.84;31.41
55486;BME280;49383;-25.924;28.194;2023-04-29T03:09:55;85472.23;;;24.57;31.42
55486;BME280;49383;-25.924;28.194;2023-04-29T03:12:20;85470.82;;;24.84;31.43
55486;BME280;49383;-25.924;28.194;2023-04-29T03:14:46;85470.16;;;24.82;31.42
55486;BME280;49383;-25.924;28.194;2023-04-29T03:17:11;85465.51;;;24.55;31.43
55486;BME280;49383;-25.924;28.194;2023-04-29T03:19:37;85465.66;;;24.82;31.43
55486;BME280;49383;-25.924;28.194;2023-04-29T03:22:02;85467.33;;;24.55;31.45
55486;BME280;49383;-25.924;28.194;2023-04-29T03:24:28;85471.26;;;24.81;31.47
55486;BME280;49383;-25.924;28.194;2023-04-29T03:26:53;85474.91;;;24.81;31.47
55486;BME280;49383;-25.924;28.194;2023-04-29T03:29:19;85477.85;;;24.54;31.48
55486;BME280;49383;-25.924;28.194;2023-04-29T03:31:45;85482.77;;;24.79;31.48
55486;BME280;49383;-25.924;28.194;2023-04-29T03:34:10;85482.40;;;24.79;31.50
55486;BME280;49383;-25.924;28.194;2023-04-29T03:36:36;85481.39;;;24.79;31.52
55486;BME280;49383;-25.924;28.194;2023-04-29T03:39:02;85473.19;;;24.78;31.52
55486;BME280;49383;-25.924;28.194;2023-04-29T03:41:27;85475.35;;;24.78;31.52
55486;BME280;49383;-25.924;28.194;2023-04-29T03:43:51;85481.05;;;24.77;31.54
55486;BME280;49383;-25.924;28.194;2023-04-29T03:46:17;85482.70;;;24.77;31.54
55486;BME280;49383;-25.924;28.194;2023-04-29T03:48:42;85484.95;;;24.77;31.55
55486;BME280;49383;-25.924;28.194;2023-04-29T03:51:08;85485.67;;;24.50;31.56
55486;BME280;49383;-25.924;28.194;2023-04-29T03:53:33;85489.28;;;24.50;31.56
55486;BME280;49383;-25.924;28.194;2023-04-29T03:55:58;85492.66;;;24.75;31.58
55486;BME280;49383;-25.924;28.194;2023-04-29T03:58:24;85491.20;;;24.75;31.59
55486;BME280;49383;-25.924;28.194;2023-04-29T04:00:50;85489.24;;;24.75;31.59
55486;BME280;49383;-25.924;28.194;2023-04-29T04:03:15;85485.64;;;24.74;31.60
55486;BME280;49383;-25.924;28.194;2023-04-29T04:05:40;85485.70;;;24.47;31.62
55486;BME280;49383;-25.924;28.194;2023-04-29T04:08:06;85487.46;;;24.73;31.65
55486;BME280;49383;-25.924;28.194;2023-04-29T04:10:31;85491.09;;;24.46;31.63
55486;BME280;49383;-25.924;28.194;2023-04-29T04:12:57;85496.61;;;24.72;31.63
55486;BME280;49383;-25.924;28.194;2023-04-29T04:15:22;85503.33;;;24.75;31.59
55486;BME280;49383;-25.924;28.194;2023-04-29T04:17:48;85511.82;;;24.74;31.61
55486;BME280;49383;-25.924;28.194;2023-04-29T04:20:13;85515.63;;;24.48;31.61
55486;BME280;49383;-25.924;28.194;2023-04-29T04:22:39;85516.80;;;24.46;31.62
55486;BME280;49383;-25.924;28.194;2023-04-29T04:25:04;85516.66;;;24.44;31.64
55486;BME280;49383;-25.924;28.194;2023-04-29T04:27:29;85517.55;;;24.69;31.66
55486;BME280;49383;-25.924;28.194;2023-04-29T04:29:55;85515.61;;;24.69;31.66
55486;BME280;49383;-25.924;28.194;2023-04-29T04:32:20;85513.89;;;24.68;31.67
55486;BME280;49383;-25.924;28.194;2023-04-29T04:34:45;85512.78;;;24.41;31.66
55486;BME280;49383;-25.924;28.194;2023-04-29T04:37:11;85515.02;;;24.67;31.67
55486;BME280;49383;-25.924;28.194;2023-04-29T04:39:38;85518.93;;;24.66;31.68
55486;BME280;49383;-25.924;28.194;2023-04-29T04:42:02;85522.39;;;24.39;31.68
55486;BME280;49383;-25.924;28.194;2023-04-29T04:44:27;85525.47;;;24.67;31.66
55486;BME280;49383;-25.924;28.194;2023-04-29T04:46:53;85532.47;;;24.65;31.68
55486;BME280;49383;-25.924;28.194;2023-04-29T04:49:18;85538.16;;;24.65;31.69
55486;BME280;49383;-25.924;28.194;2023-04-29T04:51:44;85543.61;;;24.66;31.69
55486;BME280;49383;-25.924;28.194;2023-04-29T04:54:09;85546.21;;;24.66;31.71
55486;BME280;49383;-25.924;28.194;2023-04-29T04:56:34;85542.07;;;24.67;31.71
55486;BME280;49383;-25.924;28.194;2023-04-29T04:59:01;85540.93;;;24.40;31.68
55486;BME280;49383;-25.924;28.194;2023-04-29T05:01:25;85542.62;;;24.67;31.68
55486;BME280;49383;-25.924;28.194;2023-04-29T05:03:49;85545.74;;;24.68;31.67
55486;BME280;49383;-25.924;28.194;2023-04-29T05:06:15;85549.25;;;24.43;31.61
55486;BME280;49383;-25.924;28.194;2023-04-29T05:08:40;85547.23;;;24.46;31.54
55486;BME280;49383;-25.924;28.194;2023-04-29T05:11:05;85546.50;;;24.75;31.54
55486;BME280;49383;-25.924;28.194;2023-04-29T05:13:32;85550.46;;;24.78;31.54
55486;BME280;49383;-25.924;28.194;2023-04-29T05:15:57;85551.57;;;24.54;31.56
55486;BME280;49383;-25.924;28.194;2023-04-29T05:18:22;85553.43;;;24.57;31.56
55486;BME280;49383;-25.924;28.194;2023-04-29T05:20:47;85550.20;;;24.87;31.54
55486;BME280;49383;-25.924;28.194;2023-04-29T05:23:12;85548.52;;;24.65;31.48
55486;BME280;49383;-25.924;28.194;2023-04-29T05:25:37;85554.17;;;24.96;31.44
55486;BME280;49383;-25.924;28.194;2023-04-29T05:28:03;85557.46;;;25.01;31.39
55486;BME280;49383;-25.924;28.194;2023-04-29T05:30:28;85560.42;;;24.79;31.33
55486;BME280;49383;-25.924;28.194;2023-04-29T05:32:54;85561.30;;;24.84;31.32
55486;BME280;49383;-25.924;28.194;2023-04-29T05:35:19;85563.32;;;24.67;31.29
55486;BME280;49383;-25.924;28.194;2023-04-29T05:37:44;85563.01;;;24.93;31.25
55486;BME280;49383;-25.924;28.194;2023-04-29T05:40:10;85562.61;;;24.74;31.23
55486;BME280;49383;-25.924;28.194;2023-04-29T05:42:35;85563.11;;;24.79;31.20
55486;BME280;49383;-25.924;28.194;2023-04-29T05:45:00;85562.62;;;24.83;31.13
55486;BME280;49383;-25.924;28.194;2023-04-29T05:47:27;85563.13;;;24.89;31.11
55486;BME280;49383;-25.924;28.194;2023-04-29T05:49:51;85562.25;;;24.93;31.11
55486;BME280;49383;-25.924;28.194;2023-04-29T05:52:17;85564.90;;;24.98;31.08
55486;BME280;49383;-25.924;28.194;2023-04-29T05:54:42;85567.04;;;25.04;31.06
55486;BME280;49383;-25.924;28.194;2023-04-29T05:57:07;85569.62;;;25.09;31.00
55486;BME280;49383;-25.924;28.194;2023-04-29T05:59:32;85571.75;;;25.14;31.00
55486;BME280;49383;-25.924;28.194;2023-04-29T06:01:57;85570.32;;;25.18;30.97
55486;BME280;49383;-25.924;28.194;2023-04-29T06:04:22;85567.97;;;25.22;31.00
55486;BME280;49383;-25.924;28.194;2023-04-29T06:06:48;85567.82;;;25.23;31.00
55486;BME280;49383;-25.924;28.194;2023-04-29T06:09:14;85567.76;;;25.25;30.99
55486;BME280;49383;-25.924;28.194;2023-04-29T06:11:39;85566.17;;;24.99;31.00
55486;BME280;49383;-25.924;28.194;2023-04-29T06:14:04;85562.99;;;25.27;30.98
55486;BME280;49383;-25.924;28.194;2023-04-29T06:16:31;85561.66;;;25.26;31.01
55486;BME280;49383;-25.924;28.194;2023-04-29T06:18:56;85564.48;;;25.27;31.00
55486;BME280;49383;-25.924;28.194;2023-04-29T06:21:21;85566.77;;;25.27;31.02
55486;BME280;49383;-25.924;28.194;2023-04-29T06:23:47;85569.96;;;25.28;31.02
55486;BME280;49383;-25.924;28.194;2023-04-29T06:26:12;85571.71;;;25.29;31.06
55486;BME280;49383;-25.924;28.194;2023-04-29T06:28:37;85568.87;;;25.31;31.02
55486;BME280;49383;-25.924;28.194;2023-04-29T06:31:03;85570.21;;;25.35;31.01
55486;BME280;49383;-25.924;28.194;2023-04-29T06:33:29;85571.70;;;24.90;30.99
55486;BME280;49383;-25.924;28.194;2023-04-29T06:35:54;85573.47;;;25.42;31.02
55486;BME280;49383;-25.924;28.194;2023-04-29T06:38:20;85574.34;;;25.44;30.99
55486;BME280;49383;-25.924;28.194;2023-04-29T06:40:46;85574.50;;;25.45;30.96
55486;BME280;49383;-25.924;28.194;2023-04-29T06:43:12;85572.39;;;24.98;30.98
55486;BME280;49383;-25.924;28.194;2023-04-29T06:45:37;85571.03;;;25.49;30.98
55486;BME280;49383;-25.924;28.194;2023-04-29T06:48:04;85574.14;;;25.25;30.95
55486;BME280;49383;-25.924;28.194;2023-04-29T06:50:29;85577.72;;;25.55;30.95
55486;BME280;49383;-25.924;28.194;2023-04-29T06:52:55;85576.86;;;25.56;30.95
55486;BME280;49383;-25.924;28.194;2023-04-29T06:55:20;85578.32;;;25.58;30.95
55486;BME280;49383;-25.924;28.194;2023-04-29T06:57:46;85579.09;;;25.09;30.96
55486;BME280;49383;-25.924;28.194;2023-04-29T07:00:12;85579.55;;;25.59;30.97
55486;BME280;49383;-25.924;28.194;2023-04-29T07:02:37;85578.77;;;25.60;30.91
55486;BME280;49383;-25.924;28.194;2023-04-29T07:05:03;85573.86;;;25.37;30.94
55486;BME280;49383;-25.924;28.194;2023-04-29T07:07:28;85573.06;;;25.42;30.93
55486;BME280;49383;-25.924;28.194;2023-04-29T07:09:58;85570.24;;;25.46;30.93
55486;BME280;49383;-25.924;28.194;2023-04-29T07:12:20;85567.26;;;25.28;30.86
55486;BME280;49383;-25.924;28.194;2023-04-29T07:14:44;85567.58;;;25.82;30.83
55486;BME280;49383;-25.924;28.194;2023-04-29T07:17:09;85564.16;;;25.60;30.86
55486;BME280;49383;-25.924;28.194;2023-04-29T07:19:35;85558.33;;;25.64;30.84
55486;BME280;49383;-25.924;28.194;2023-04-29T07:22:01;85551.04;;;25.47;30.82
55486;BME280;49383;-25.924;28.194;2023-04-29T07:24:26;85557.20;;;25.51;30.81
55486;BME280;49383;-25.924;28.194;2023-04-29T07:26:52;85560.55;;;25.56;30.81
55486;BME280;49383;-25.924;28.194;2023-04-29T07:29:18;85557.63;;;25.60;30.82
55486;BME280;49383;-25.924;28.194;2023-04-29T07:31:44;85558.89;;;25.64;30.75
55486;BME280;49383;-25.924;28.194;2023-04-29T07:34:09;85557.48;;;25.68;30.79
55486;BME280;49383;-25.924;28.194;2023-04-29T07:36:35;85552.62;;;25.72;30.75
55486;BME280;49383;-25.924;28.194;2023-04-29T07:39:01;85554.14;;;25.76;30.71
55486;BME280;49383;-25.924;28.194;2023-04-29T07:41:26;85556.85;;;26.01;30.74
55486;BME280;49383;-25.924;28.194;2023-04-29T07:43:52;85555.63;;;25.83;30.74
55486;BME280;49383;-25.924;28.194;2023-04-29T07:46:17;85553.19;;;26.09;30.71
55486;BME280;49383;-25.924;28.194;2023-04-29T07:48:42;85555.78;;;25.91;30.74
55486;BME280;49383;-25.924;28.194;2023-04-29T07:51:12;85555.91;;;25.95;30.67
55486;BME280;49383;-25.924;28.194;2023-04-29T07:53:33;85551.58;;;25.97;30.68
55486;BME280;49383;-25.924;28.194;2023-04-29T07:55:59;85546.65;;;26.01;30.70
55486;BME280;49383;-25.924;28.194;2023-04-29T07:58:25;85546.08;;;26.04;30.65
55486;BME280;49383;-25.924;28.194;2023-04-29T08:00:50;85540.50;;;26.07;30.68
55486;BME280;49383;-25.924;28.194;2023-04-29T08:03:16;85537.20;;;26.09;30.70
55486;BME280;49383;-25.924;28.194;2023-04-29T08:05:41;85537.04;;;26.12;30.67
55486;BME280;49383;-25.924;28.194;2023-04-29T08:08:07;85534.36;;;26.15;30.65
55486;BME280;49383;-25.924;28.194;2023-04-29T08:10:36;85531.92;;;26.17;30.66
55486;BME280;49383;-25.924;28.194;2023-04-29T08:12:58;85530.57;;;26.20;30.64
55486;BME280;49383;-25.924;28.194;2023-04-29T08:15:24;85529.80;;;26.01;30.68
55486;BME280;49383;-25.924;28.194;2023-04-29T08:17:49;85525.52;;;26.26;30.72
55486;BME280;49383;-25.924;28.194;2023-04-29T08:20:15;85523.85;;;26.27;30.66
55486;BME280;49383;-25.924;28.194;2023-04-29T08:22:41;85522.10;;;26.31;30.62
55486;BME280;49383;-25.924;28.194;2023-04-29T08:25:08;85518.67;;;26.33;30.67
55486;BME280;49383;-25.924;28.194;2023-04-29T08:27:33;85517.23;;;26.35;30.60
55486;BME280;49383;-25.924;28.194;2023-04-29T08:29:58;85513.79;;;26.37;30.61
55486;BME280;49383;-25.924;28.194;2023-04-29T08:32:24;85510.64;;;26.16;30.69
55486;BME280;49383;-25.924;28.194;2023-04-29T08:34:51;85512.16;;;26.18;30.63
55486;BME280;49383;-25.924;28.194;2023-04-29T08:37:14;85516.49;;;26.41;30.64
55486;BME280;49383;-25.924;28.194;2023-04-29T08:39:40;85516.99;;;26.44;30.62
55486;BME280;49383;-25.924;28.194;2023-04-29T08:42:08;85514.13;;;26.46;30.62
55486;BME280;49383;-25.924;28.194;2023-04-29T08:44:31;85508.15;;;26.47;30.60
55486;BME280;49383;-25.924;28.194;2023-04-29T08:46:57;85504.71;;;26.49;30.65
55486;BME280;49383;-25.924;28.194;2023-04-29T08:49:22;85502.25;;;26.51;30.61
55486;BME280;49383;-25.924;28.194;2023-04-29T08:51:48;85500.03;;;26.52;30.60
55486;BME280;49383;-25.924;28.194;2023-04-29T08:54:13;85497.94;;;26.54;30.59
55486;BME280;49383;-25.924;28.194;2023-04-29T08:56:39;85492.55;;;26.33;30.63
55486;BME280;49383;-25.924;28.194;2023-04-29T08:59:08;85488.41;;;26.34;30.63
55486;BME280;49383;-25.924;28.194;2023-04-29T09:01:30;85486.59;;;26.57;30.59
55486;BME280;49383;-25.924;28.194;2023-04-29T09:04:11;85480.52;;;26.58;30.58
55486;BME280;49383;-25.924;28.194;2023-04-29T09:06:21;85476.16;;;26.59;30.59
55486;BME280;49383;-25.924;28.194;2023-04-29T09:08:47;85473.36;;;26.60;30.60
55486;BME280;49383;-25.924;28.194;2023-04-29T09:11:14;85469.53;;;26.60;30.58
55486;BME280;49383;-25.924;28.194;2023-04-29T09:13:38;85468.37;;;26.61;30.59
55486;BME280;49383;-25.924;28.194;2023-04-29T09:16:04;85466.79;;;26.62;30.57
55486;BME280;49383;-25.924;28.194;2023-04-29T09:20:55;85463.29;;;26.64;30.58
55486;BME280;49383;-25.924;28.194;2023-04-29T09:25:54;85459.48;;;26.64;30.59
55486;BME280;49383;-25.924;28.194;2023-04-29T09:28:15;85453.10;;;26.65;30.60
55486;BME280;49383;-25.924;28.194;2023-04-29T09:30:47;85450.97;;;26.43;30.57
55486;BME280;49383;-25.924;28.194;2023-04-29T09:33:06;85450.37;;;26.65;30.57
55486;BME280;49383;-25.924;28.194;2023-04-29T09:35:30;85444.29;;;26.66;30.61
55486;BME280;49383;-25.924;28.194;2023-04-29T09:40:29;85432.00;;;26.43;30.57
55486;BME280;49383;-25.924;28.194;2023-04-29T09:42:47;85430.19;;;26.44;30.60
55486;BME280;49383;-25.924;28.194;2023-04-29T09:45:13;85431.45;;;26.45;30.60
55486;BME280;49383;-25.924;28.194;2023-04-29T09:47:38;85425.77;;;26.66;30.61
55486;BME280;49383;-25.924;28.194;2023-04-29T09:50:12;85421.37;;;26.66;30.59
55486;BME280;49383;-25.924;28.194;2023-04-29T09:52:39;85416.72;;;26.66;30.63
55486;BME280;49383;-25.924;28.194;2023-04-29T09:55:04;85411.28;;;26.44;30.59
55486;BME280;49383;-25.924;28.194;2023-04-29T09:57:21;85410.35;;;26.66;30.60
55486;BME280;49383;-25.924;28.194;2023-04-29T09:59:47;85406.50;;;26.16;30.59
55486;BME280;49383;-25.924;28.194;2023-04-29T10:02:14;85403.46;;;26.64;30.62
55486;BME280;49383;-25.924;28.194;2023-04-29T10:04:40;85403.59;;;26.63;30.63
55486;BME280;49383;-25.924;28.194;2023-04-29T10:07:04;85402.02;;;26.41;30.63
55486;BME280;49383;-25.924;28.194;2023-04-29T10:09:31;85401.90;;;26.62;30.61
55486;BME280;49383;-25.924;28.194;2023-04-29T10:11:56;85401.32;;;26.62;30.62
55486;BME280;49383;-25.924;28.194;2023-04-29T10:14:23;85397.09;;;26.62;30.64
55486;BME280;49383;-25.924;28.194;2023-04-29T10:16:49;85390.66;;;26.43;30.38
55486;BME280;49383;-25.924;28.194;2023-04-29T10:19:20;85384.65;;;26.85;30.39
55486;BME280;49383;-25.924;28.194;2023-04-29T10:21:39;85384.34;;;26.71;30.55
55486;BME280;49383;-25.924;28.194;2023-04-29T10:24:05;85380.19;;;26.64;30.65
55486;BME280;49383;-25.924;28.194;2023-04-29T10:26:30;85375.64;;;26.61;30.61
55486;BME280;49383;-25.924;28.194;2023-04-29T10:28:56;85371.44;;;26.58;30.70
55486;BME280;49383;-25.924;28.194;2023-04-29T10:31:22;85367.05;;;26.56;30.69
55486;BME280;49383;-25.924;28.194;2023-04-29T10:33:47;85363.49;;;26.54;30.71
55486;BME280;49383;-25.924;28.194;2023-04-29T10:36:13;85362.27;;;26.53;30.71
55486;BME280;49383;-25.924;28.194;2023-04-29T10:38:41;85353.59;;;26.52;30.71
55486;BME280;49383;-25.924;28.194;2023-04-29T10:41:13;85353.19;;;26.51;30.70
55486;BME280;49383;-25.924;28.194;2023-04-29T10:43:32;85350.22;;;26.50;30.70
55486;BME280;49383;-25.924;28.194;2023-04-29T10:48:22;85347.12;;;26.46;30.73
55486;BME280;49383;-25.924;28.194;2023-04-29T10:53:16;85337.81;;;26.45;30.76
55486;BME280;49383;-25.924;28.194;2023-04-29T10:55:40;85337.69;;;26.44;30.78
55486;BME280;49383;-25.924;28.194;2023-04-29T10:58:05;85333.83;;;26.43;30.80
55486;BME280;49383;-25.924;28.194;2023-04-29T11:00:31;85331.41;;;26.41;30.78
55486;BME280;49383;-25.924;28.194;2023-04-29T11:02:57;85329.21;;;26.39;30.77
55486;BME280;49383;-25.924;28.194;2023-04-29T11:07:46;85320.61;;;26.37;30.79
55486;BME280;49383;-25.924;28.194;2023-04-29T11:10:13;85322.86;;;26.36;30.81
55486;BME280;49383;-25.924;28.194;2023-04-29T11:12:38;85318.97;;;26.56;30.80
55486;BME280;49383;-25.924;28.194;2023-04-29T11:15:05;85311.63;;;26.33;30.83
55486;BME280;49383;-25.924;28.194;2023-04-29T11:17:35;85308.89;;;26.32;30.82
55486;BME280;49383;-25.924;28.194;2023-04-29T11:19:54;85304.72;;;26.31;30.83
55486;BME280;49383;-25.924;28.194;2023-04-29T11:22:24;85306.90;;;26.52;30.83
55486;BME280;49383;-25.924;28.194;2023-04-29T11:24:49;85301.18;;;26.51;30.82
55486;BME280;49383;-25.924;28.194;2023-04-29T11:27:10;85299.62;;;26.49;30.81
55486;BME280;49383;-25.924;28.194;2023-04-29T11:29:35;85293.80;;;26.26;30.83
55486;BME280;49383;-25.924;28.194;2023-04-29T11:32:01;85289.98;;;26.25;30.83
55486;BME280;49383;-25.924;28.194;2023-04-29T11:34:32;85288.81;;;26.33;30.77
55486;BME280;49383;-25.924;28.194;2023-04-29T11:36:52;85286.41;;;26.37;30.73
55486;BME280;49383;-25.924;28.194;2023-04-29T11:39:17;85287.61;;;26.61;30.68
55486;BME280;49383;-25.924;28.194;2023-04-29T11:41:43;85281.86;;;26.63;30.66
55486;BME280;49383;-25.924;28.194;2023-04-29T11:44:09;85274.95;;;26.40;30.65
55486;BME280;49383;-25.924;28.194;2023-04-29T11:46:35;85270.96;;;26.39;30.66
55486;BME280;49383;-25.924;28.194;2023-04-29T11:49:00;85268.19;;;26.38;30.65
55486;BME280;49383;-25.924;28.194;2023-04-29T11:51:25;85270.70;;;26.81;30.73
55486;BME280;49383;-25.924;28.194;2023-04-29T11:53:51;85268.40;;;26.23;30.81
55486;BME280;49383;-25.924;28.194;2023-04-29T11:56:16;85266.49;;;26.20;30.83
55486;BME280;49383;-25.924;28.194;2023-04-29T11:58:42;85262.86;;;26.18;30.86
55486;BME280;49383;-25.924;28.194;2023-04-29T12:01:07;85256.36;;;26.16;30.89
55486;BME280;49383;-25.924;28.194;2023-04-29T12:03:33;85254.18;;;26.37;30.87
55486;BME280;49383;-25.924;28.194;2023-04-29T12:06:01;85252.71;;;26.36;30.91
55486;BME280;49383;-25.924;28.194;2023-04-29T12:08:26;85250.26;;;26.14;30.91
55486;BME280;49383;-25.924;28.194;2023-04-29T12:10:53;85244.00;;;26.12;30.92
55486;BME280;49383;-25.924;28.194;2023-04-29T12:13:17;85244.94;;;26.11;30.91
55486;BME280;49383;-25.924;28.194;2023-04-29T12:15:42;85246.26;;;26.12;30.92
55486;BME280;49383;-25.924;28.194;2023-04-29T12:18:07;85243.35;;;26.11;30.91
55486;BME280;49383;-25.924;28.194;2023-04-29T12:20:33;85245.80;;;26.11;30.92
55486;BME280;49383;-25.924;28.194;2023-04-29T12:25:26;85247.04;;;26.31;30.93
55486;BME280;49383;-25.924;28.194;2023-04-29T12:27:58;85245.98;;;26.30;30.95
55486;BME280;49383;-25.924;28.194;2023-04-29T12:30:16;85242.74;;;26.08;30.93
55486;BME280;49383;-25.924;28.194;2023-04-29T12:32:41;85238.93;;;26.30;30.93
55486;BME280;49383;-25.924;28.194;2023-04-29T12:35:15;85237.55;;;26.28;30.92
55486;BME280;49383;-25.924;28.194;2023-04-29T12:37:33;85234.87;;;26.54;30.93
55486;BME280;49383;-25.924;28.194;2023-04-29T12:39:58;85228.80;;;26.26;30.95
55486;BME280;49383;-25.924;28.194;2023-04-29T12:42:30;85221.88;;;26.52;30.95
55486;BME280;49383;-25.924;28.194;2023-04-29T12:44:49;85215.82;;;26.25;30.97
55486;BME280;49383;-25.924;28.194;2023-04-29T12:47:16;85211.21;;;26.24;30.95